createdAt,value
2018-03-29T00:00:06.061Z,4.12
2018-03-29T00:01:06.007Z,4.16
2018-03-29T00:02:05.957Z,4.13
2018-03-29T00:03:05.906Z,4.15
2018-03-29T00:04:05.854Z,4.13
2018-03-29T00:05:05.828Z,4.01
2018-03-29T00:06:05.758Z,4.13
2018-03-29T00:07:05.700Z,4.04
2018-03-29T00:08:05.650Z,4.05
2018-03-29T00:09:05.596Z,4.09
2018-03-29T00:10:05.576Z,4.09
2018-03-29T00:11:05.492Z,4.04
2018-03-29T00:12:05.447Z,4.13
2018-03-29T00:13:05.390Z,4.09
2018-03-29T00:14:05.336Z,4.04
2018-03-29T00:15:05.308Z,4.15
2018-03-29T00:16:05.237Z,4.08
2018-03-29T00:17:05.181Z,4.04
2018-03-29T00:18:05.131Z,4.00
2018-03-29T00:19:05.084Z,4.08
2018-03-29T00:20:05.059Z,4.01
2018-03-29T00:21:04.979Z,4.01
2018-03-29T00:22:04.921Z,4.01
2018-03-29T00:23:04.875Z,4.04
2018-03-29T00:24:04.819Z,4.01
2018-03-29T00:25:04.795Z,3.91
2018-03-29T00:26:04.718Z,3.82
2018-03-29T00:27:04.674Z,3.77
2018-03-29T00:28:04.616Z,3.86
2018-03-29T00:29:04.560Z,3.77
2018-03-29T00:30:04.533Z,3.86
2018-03-29T00:31:04.459Z,3.86
2018-03-29T00:32:04.412Z,3.77
2018-03-29T00:33:04.376Z,3.79
2018-03-29T00:34:04.306Z,3.83
2018-03-29T00:35:04.277Z,3.79
2018-03-29T00:36:04.203Z,3.79
2018-03-29T00:37:04.148Z,3.84
2018-03-29T00:38:04.096Z,3.80
2018-03-29T00:39:04.067Z,3.82
2018-03-29T00:40:04.025Z,3.83
2018-03-29T00:41:03.947Z,3.88
2018-03-29T00:42:03.892Z,3.82
2018-03-29T00:43:03.839Z,3.83
2018-03-29T00:44:03.785Z,3.77
2018-03-29T00:45:03.759Z,3.77
2018-03-29T00:46:03.679Z,3.83
2018-03-29T00:47:03.629Z,3.77
2018-03-29T00:48:03.583Z,3.79
2018-03-29T00:49:03.531Z,3.76
2018-03-29T00:50:03.507Z,3.79
2018-03-29T00:51:03.424Z,3.83
2018-03-29T00:52:03.370Z,3.80
2018-03-29T00:53:03.324Z,3.79
2018-03-29T00:54:03.270Z,3.74
2018-03-29T00:55:03.239Z,3.79
2018-03-29T00:56:03.168Z,3.74
2018-03-29T00:57:03.117Z,3.77
2018-03-29T00:58:03.060Z,3.74
2018-03-29T00:59:03.009Z,3.77
2018-03-29T01:00:02.988Z,3.80
2018-03-29T01:01:02.904Z,3.73
2018-03-29T01:02:02.854Z,3.72
2018-03-29T01:03:02.803Z,3.70
2018-03-29T01:04:02.749Z,3.65
2018-03-29T01:05:02.722Z,3.68
2018-03-29T01:06:02.651Z,3.77
2018-03-29T01:07:02.602Z,3.72
2018-03-29T01:08:02.551Z,3.73
2018-03-29T01:09:02.492Z,3.72
2018-03-29T01:10:02.463Z,3.66
2018-03-29T01:11:02.388Z,3.70
2018-03-29T01:12:02.336Z,3.72
2018-03-29T01:13:02.348Z,3.73
2018-03-29T01:14:02.236Z,3.76
2018-03-29T01:15:02.209Z,3.72
2018-03-29T01:16:02.128Z,3.65
2018-03-29T01:17:02.076Z,3.65
2018-03-29T01:18:02.034Z,3.74
2018-03-29T01:19:01.977Z,3.76
2018-03-29T01:20:01.951Z,3.82
2018-03-29T01:21:01.874Z,3.68
2018-03-29T01:22:01.820Z,3.80
2018-03-29T01:23:01.765Z,3.76
2018-03-29T01:24:01.715Z,3.76
2018-03-29T01:25:01.701Z,3.82
2018-03-29T01:26:01.618Z,3.76
2018-03-29T01:27:01.568Z,3.84
2018-03-29T01:28:01.512Z,3.79
2018-03-29T01:29:01.456Z,3.74
2018-03-29T01:30:01.427Z,3.77
2018-03-29T01:31:01.352Z,3.80
2018-03-29T01:32:01.302Z,3.79
2018-03-29T01:33:01.256Z,3.83
2018-03-29T01:34:01.198Z,3.70
2018-03-29T01:35:01.178Z,3.70
2018-03-29T01:36:01.097Z,3.68
2018-03-29T01:37:01.059Z,3.72
2018-03-29T01:38:00.993Z,3.66
2018-03-29T01:39:00.939Z,3.64
2018-03-29T01:40:00.914Z,3.61
2018-03-29T01:41:00.836Z,3.68
2018-03-29T01:42:00.787Z,3.56
2018-03-29T01:43:00.732Z,3.65
2018-03-29T01:44:00.686Z,3.65
2018-03-29T01:45:00.651Z,3.58
2018-03-29T01:46:00.578Z,3.65
2018-03-29T01:47:00.527Z,3.59
2018-03-29T01:48:00.483Z,3.64
2018-03-29T01:49:00.423Z,3.64
2018-03-29T01:50:00.395Z,3.59
2018-03-29T01:51:00.322Z,3.65
2018-03-29T01:52:00.269Z,3.61
2018-03-29T01:53:00.219Z,3.56
2018-03-29T01:54:00.164Z,3.65
2018-03-29T01:55:00.144Z,3.70
2018-03-29T01:56:00.063Z,3.65
2018-03-29T01:57:00.009Z,3.61
2018-03-29T01:57:59.958Z,3.64
2018-03-29T01:58:59.905Z,3.64
2018-03-29T01:59:59.876Z,3.62
2018-03-29T02:00:59.809Z,3.66
2018-03-29T02:01:59.748Z,3.59
2018-03-29T02:02:59.700Z,3.64
2018-03-29T02:03:59.648Z,3.62
2018-03-29T02:04:59.641Z,3.66
2018-03-29T02:05:59.547Z,3.66
2018-03-29T02:06:59.490Z,3.68
2018-03-29T02:07:59.441Z,3.64
2018-03-29T02:08:59.388Z,3.65
2018-03-29T02:09:59.361Z,3.56
2018-03-29T02:10:59.283Z,3.59
2018-03-29T02:11:59.233Z,3.68
2018-03-29T02:12:59.182Z,3.68
2018-03-29T02:13:59.131Z,3.64
2018-03-29T02:14:59.101Z,3.61
2018-03-29T02:15:59.043Z,3.68
2018-03-29T02:16:58.975Z,3.70
2018-03-29T02:17:58.926Z,3.68
2018-03-29T02:18:58.871Z,3.68
2018-03-29T02:19:58.841Z,3.61
2018-03-29T02:20:58.766Z,3.68
2018-03-29T02:21:58.717Z,3.73
2018-03-29T02:22:58.723Z,3.66
2018-03-29T02:23:58.624Z,3.72
2018-03-29T02:24:58.585Z,3.65
2018-03-29T02:25:58.511Z,3.66
2018-03-29T02:26:58.460Z,3.64
2018-03-29T02:27:58.408Z,3.66
2018-03-29T02:28:58.360Z,3.72
2018-03-29T02:29:58.326Z,3.79
2018-03-29T02:30:58.255Z,3.82
2018-03-29T02:31:58.224Z,3.66
2018-03-29T02:32:58.151Z,3.73
2018-03-29T02:33:58.098Z,3.68
2018-03-29T02:34:58.072Z,3.66
2018-03-29T02:35:58.014Z,3.74
2018-03-29T02:36:57.945Z,3.65
2018-03-29T02:37:57.890Z,3.65
2018-03-29T02:38:57.840Z,3.82
2018-03-29T02:39:57.829Z,3.74
2018-03-29T02:40:57.735Z,3.79
2018-03-29T02:41:57.688Z,3.66
2018-03-29T02:42:57.638Z,3.82
2018-03-29T02:43:57.580Z,3.79
2018-03-29T02:44:57.528Z,3.74
2018-03-29T02:45:57.501Z,3.65
2018-03-29T02:46:57.425Z,3.83
2018-03-29T02:47:57.382Z,3.76
2018-03-29T02:48:57.325Z,3.68
2018-03-29T02:49:57.277Z,3.82
2018-03-29T02:50:57.246Z,3.77
2018-03-29T02:51:57.176Z,3.80
2018-03-29T02:52:57.124Z,3.83
2018-03-29T02:53:57.067Z,3.82
2018-03-29T02:54:57.032Z,3.84
2018-03-29T02:55:56.983Z,3.80
2018-03-29T02:56:56.910Z,3.80
2018-03-29T02:57:56.902Z,3.84
2018-03-29T02:58:56.804Z,3.82
2018-03-29T02:59:56.756Z,3.82
2018-03-29T03:00:56.727Z,3.86
2018-03-29T03:01:56.655Z,3.82
2018-03-29T03:02:56.606Z,3.77
2018-03-29T03:03:56.550Z,3.84
2018-03-29T03:04:56.502Z,3.84
2018-03-29T03:05:56.470Z,3.82
2018-03-29T03:06:56.395Z,3.84
2018-03-29T03:07:56.340Z,3.82
2018-03-29T03:08:56.294Z,3.76
2018-03-29T03:09:56.246Z,3.84
2018-03-29T03:10:56.222Z,3.83
2018-03-29T03:11:56.142Z,3.83
2018-03-29T03:12:56.084Z,3.84
2018-03-29T03:13:56.035Z,3.82
2018-03-29T03:14:55.985Z,3.82
2018-03-29T03:15:55.952Z,3.84
2018-03-29T03:16:55.884Z,3.80
2018-03-29T03:17:55.832Z,3.83
2018-03-29T03:18:55.776Z,3.84
2018-03-29T03:19:55.730Z,3.90
2018-03-29T03:20:55.715Z,3.82
2018-03-29T03:21:55.624Z,3.86
2018-03-29T03:22:55.574Z,3.84
2018-03-29T03:23:55.527Z,3.82
2018-03-29T03:24:55.469Z,3.77
2018-03-29T03:25:55.446Z,3.77
2018-03-29T03:26:55.364Z,3.80
2018-03-29T03:27:55.318Z,3.79
2018-03-29T03:28:55.263Z,3.68
2018-03-29T03:29:55.215Z,3.79
2018-03-29T03:30:55.190Z,3.76
2018-03-29T03:31:55.108Z,3.76
2018-03-29T03:32:55.058Z,3.80
2018-03-29T03:33:55.004Z,3.77
2018-03-29T03:34:54.953Z,3.70
2018-03-29T03:35:54.931Z,3.74
2018-03-29T03:36:54.853Z,3.77
2018-03-29T03:37:54.802Z,3.73
2018-03-29T03:38:54.748Z,3.66
2018-03-29T03:39:54.696Z,3.68
2018-03-29T03:40:54.666Z,3.65
2018-03-29T03:41:54.601Z,3.66
2018-03-29T03:42:54.540Z,3.61
2018-03-29T03:43:54.497Z,3.74
2018-03-29T03:44:54.444Z,3.79
2018-03-29T03:45:54.411Z,3.62
2018-03-29T03:46:54.335Z,3.70
2018-03-29T03:47:54.284Z,3.64
2018-03-29T03:48:54.234Z,3.68
2018-03-29T03:49:54.179Z,3.64
2018-03-29T03:50:54.152Z,3.68
2018-03-29T03:51:54.079Z,3.70
2018-03-29T03:52:54.026Z,3.68
2018-03-29T03:53:53.976Z,3.68
2018-03-29T03:54:53.922Z,3.73
2018-03-29T03:55:53.892Z,3.64
2018-03-29T03:56:53.818Z,3.70
2018-03-29T03:57:53.768Z,3.74
2018-03-29T03:58:53.716Z,3.66
2018-03-29T03:59:53.665Z,3.70
2018-03-29T04:00:53.635Z,3.70
2018-03-29T04:01:53.562Z,3.70
2018-03-29T04:02:53.510Z,3.68
2018-03-29T04:03:53.457Z,3.70
2018-03-29T04:04:53.404Z,3.72
2018-03-29T04:05:53.376Z,3.68
2018-03-29T04:06:53.301Z,3.73
2018-03-29T04:07:53.249Z,3.77
2018-03-29T04:08:53.201Z,3.68
2018-03-29T04:09:53.146Z,3.61
2018-03-29T04:10:53.116Z,3.64
2018-03-29T04:11:53.044Z,3.59
2018-03-29T04:12:52.997Z,3.68
2018-03-29T04:13:52.938Z,3.61
2018-03-29T04:14:52.886Z,3.62
2018-03-29T04:15:52.859Z,3.56
2018-03-29T04:16:52.786Z,3.62
2018-03-29T04:17:52.737Z,3.66
2018-03-29T04:18:52.682Z,3.62
2018-03-29T04:19:52.645Z,3.59
2018-03-29T04:20:52.605Z,3.59
2018-03-29T04:21:52.524Z,3.61
2018-03-29T04:22:52.472Z,3.66
2018-03-29T04:23:52.427Z,3.72
2018-03-29T04:24:52.371Z,3.64
2018-03-29T04:25:52.342Z,3.68
2018-03-29T04:26:52.267Z,3.62
2018-03-29T04:27:52.218Z,3.70
2018-03-29T04:28:52.164Z,3.59
2018-03-29T04:29:52.109Z,3.58
2018-03-29T04:30:52.084Z,3.56
2018-03-29T04:31:52.010Z,3.56
2018-03-29T04:32:51.961Z,3.59
2018-03-29T04:33:51.905Z,3.65
2018-03-29T04:34:51.853Z,3.58
2018-03-29T04:35:51.825Z,3.59
2018-03-29T04:36:51.753Z,3.65
2018-03-29T04:37:51.714Z,3.68
2018-03-29T04:38:51.648Z,3.68
2018-03-29T04:39:51.597Z,3.72
2018-03-29T04:40:51.569Z,3.72
2018-03-29T04:41:51.494Z,3.68
2018-03-29T04:42:51.440Z,3.72
2018-03-29T04:43:51.390Z,3.74
2018-03-29T04:44:51.341Z,3.68
2018-03-29T04:45:51.312Z,3.70
2018-03-29T04:46:51.242Z,3.76
2018-03-29T04:47:51.185Z,3.79
2018-03-29T04:48:51.134Z,3.79
2018-03-29T04:49:51.085Z,3.84
2018-03-29T04:50:51.052Z,3.86
2018-03-29T04:51:50.990Z,3.90
2018-03-29T04:52:50.938Z,3.84
2018-03-29T04:53:50.881Z,3.83
2018-03-29T04:54:50.837Z,3.84
2018-03-29T04:55:50.792Z,3.83
2018-03-29T04:56:50.721Z,3.82
2018-03-29T04:57:50.667Z,3.83
2018-03-29T04:58:50.617Z,3.83
2018-03-29T04:59:50.567Z,3.88
2018-03-29T05:00:50.536Z,3.90
2018-03-29T05:01:50.463Z,3.91
2018-03-29T05:02:50.414Z,3.91
2018-03-29T05:03:50.363Z,3.82
2018-03-29T05:04:50.308Z,3.82
2018-03-29T05:05:50.281Z,3.77
2018-03-29T05:06:50.206Z,3.95
2018-03-29T05:07:50.153Z,3.95
2018-03-29T05:08:50.105Z,3.83
2018-03-29T05:09:50.051Z,3.97
2018-03-29T05:10:50.022Z,3.94
2018-03-29T05:11:49.948Z,3.95
2018-03-29T05:12:49.900Z,3.80
2018-03-29T05:13:49.854Z,3.80
2018-03-29T05:14:49.794Z,3.92
2018-03-29T05:15:49.769Z,3.86
2018-03-29T05:16:49.769Z,3.97
2018-03-29T05:17:49.644Z,4.00
2018-03-29T05:18:49.592Z,4.02
2018-03-29T05:19:49.537Z,3.94
2018-03-29T05:20:49.509Z,3.91
2018-03-29T05:21:49.435Z,4.00
2018-03-29T05:22:49.383Z,3.95
2018-03-29T05:23:49.334Z,3.91
2018-03-29T05:24:49.283Z,3.95
2018-03-29T05:25:49.258Z,3.97
2018-03-29T05:26:49.176Z,3.95
2018-03-29T05:27:49.127Z,3.92
2018-03-29T05:28:49.124Z,3.95
2018-03-29T05:29:49.027Z,3.90
2018-03-29T05:30:48.998Z,4.00
2018-03-29T05:31:48.926Z,3.86
2018-03-29T05:32:48.877Z,3.91
2018-03-29T05:33:48.823Z,3.82
2018-03-29T05:34:48.771Z,3.95
2018-03-29T05:35:48.756Z,3.82
2018-03-29T05:36:48.672Z,3.82
2018-03-29T05:37:48.615Z,3.82
2018-03-29T05:38:48.566Z,3.94
2018-03-29T05:39:48.516Z,3.91
2018-03-29T05:40:48.514Z,3.97
2018-03-29T05:41:48.436Z,4.00
2018-03-29T05:42:48.359Z,4.08
2018-03-29T05:43:48.314Z,4.01
2018-03-29T05:44:48.259Z,4.01
2018-03-29T05:45:48.208Z,4.01
2018-03-29T05:46:48.179Z,4.00
2018-03-29T05:47:48.113Z,4.05
2018-03-29T05:48:48.056Z,4.02
2018-03-29T05:49:48.006Z,4.00
2018-03-29T05:50:47.953Z,4.04
2018-03-29T05:51:47.927Z,4.05
2018-03-29T05:52:47.852Z,4.04
2018-03-29T05:53:47.798Z,3.95
2018-03-29T05:54:47.746Z,4.05
2018-03-29T05:55:47.713Z,4.00
2018-03-29T05:56:47.669Z,4.13
2018-03-29T05:57:47.595Z,4.16
2018-03-29T05:58:47.545Z,4.13
2018-03-29T05:59:47.491Z,4.15
2018-03-29T06:00:47.439Z,4.15
2018-03-29T06:01:47.428Z,4.13
2018-03-29T06:02:47.341Z,4.18
2018-03-29T06:03:47.295Z,4.10
2018-03-29T06:04:47.236Z,4.13
2018-03-29T06:05:47.188Z,4.05
2018-03-29T06:06:47.191Z,4.15
2018-03-29T06:07:47.085Z,4.13
2018-03-29T06:08:47.033Z,4.16
2018-03-29T06:09:47.093Z,4.10
2018-03-29T06:10:46.970Z,4.12
2018-03-29T06:11:47.053Z,4.13
2018-03-29T06:12:46.886Z,4.12
2018-03-29T06:13:46.802Z,4.18
2018-03-29T06:14:46.726Z,4.18
2018-03-29T06:15:46.678Z,4.19
2018-03-29T06:16:46.651Z,4.26
2018-03-29T06:17:46.737Z,4.18
2018-03-29T06:18:46.582Z,4.15
2018-03-29T06:19:46.475Z,3.98
2018-03-29T06:20:46.426Z,3.97
2018-03-29T06:21:46.394Z,3.94
2018-03-29T06:22:46.319Z,3.80
2018-03-29T06:23:46.268Z,3.82
2018-03-29T06:24:46.222Z,3.79
2018-03-29T06:25:46.173Z,3.84
2018-03-29T06:26:46.143Z,3.77
2018-03-29T06:27:46.064Z,3.88
2018-03-29T06:28:46.011Z,3.88
2018-03-29T06:29:45.963Z,3.83
2018-03-29T06:30:45.914Z,3.86
2018-03-29T06:31:45.885Z,3.91
2018-03-29T06:32:45.813Z,3.92
2018-03-29T06:33:45.764Z,3.88
2018-03-29T06:34:45.705Z,3.98
2018-03-29T06:35:45.658Z,3.95
2018-03-29T06:36:45.644Z,3.97
2018-03-29T06:37:45.558Z,4.05
2018-03-29T06:38:45.502Z,4.08
2018-03-29T06:39:45.454Z,4.04
2018-03-29T06:40:45.405Z,4.02
2018-03-29T06:41:45.382Z,4.04
2018-03-29T06:42:45.301Z,4.04
2018-03-29T06:43:45.245Z,4.13
2018-03-29T06:44:45.195Z,4.10
2018-03-29T06:45:45.148Z,4.12
2018-03-29T06:46:45.115Z,4.18
2018-03-29T06:47:45.045Z,4.18
2018-03-29T06:48:44.989Z,4.19
2018-03-29T06:49:44.946Z,4.30
2018-03-29T06:50:44.903Z,4.27
2018-03-29T06:51:44.863Z,4.13
2018-03-29T06:52:44.789Z,4.15
2018-03-29T06:53:44.738Z,4.13
2018-03-29T06:54:44.717Z,4.13
2018-03-29T06:55:44.635Z,4.26
2018-03-29T06:56:44.607Z,4.26
2018-03-29T06:57:44.537Z,4.30
2018-03-29T06:58:44.484Z,4.26
2018-03-29T06:59:44.468Z,4.28
2018-03-29T07:00:44.385Z,4.26
2018-03-29T07:01:44.389Z,4.23
2018-03-29T07:02:44.274Z,4.12
2018-03-29T07:03:44.307Z,4.27
2018-03-29T07:04:44.177Z,4.26
2018-03-29T07:05:44.130Z,4.23
2018-03-29T07:06:44.105Z,4.27
2018-03-29T07:07:44.022Z,4.37
2018-03-29T07:08:43.974Z,4.34
2018-03-29T07:09:43.918Z,4.34
2018-03-29T07:10:43.869Z,4.37
2018-03-29T07:11:43.837Z,4.34
2018-03-29T07:12:43.767Z,4.34
2018-03-29T07:13:43.720Z,4.51
2018-03-29T07:14:43.668Z,4.41
2018-03-29T07:15:43.614Z,4.35
2018-03-29T07:16:43.590Z,4.40
2018-03-29T07:17:43.512Z,4.31
2018-03-29T07:18:43.463Z,4.38
2018-03-29T07:19:43.413Z,4.31
2018-03-29T07:20:43.362Z,4.51
2018-03-29T07:21:43.390Z,4.49
2018-03-29T07:22:43.258Z,4.53
2018-03-29T07:23:43.204Z,4.51
2018-03-29T07:24:43.157Z,4.61
2018-03-29T07:25:43.107Z,4.49
2018-03-29T07:26:43.078Z,4.58
2018-03-29T07:27:43.003Z,4.71
2018-03-29T07:28:42.954Z,4.66
2018-03-29T07:29:42.905Z,4.83
2018-03-29T07:30:42.854Z,4.71
2018-03-29T07:31:42.826Z,4.76
2018-03-29T07:32:42.762Z,4.85
2018-03-29T07:33:42.702Z,4.85
2018-03-29T07:34:42.666Z,4.85
2018-03-29T07:35:42.605Z,4.89
2018-03-29T07:36:42.574Z,4.95
2018-03-29T07:37:42.503Z,4.96
2018-03-29T07:38:42.448Z,5.03
2018-03-29T07:39:42.397Z,5.06
2018-03-29T07:40:42.349Z,5.10
2018-03-29T07:41:42.321Z,4.96
2018-03-29T07:42:42.253Z,5.04
2018-03-29T07:43:42.198Z,5.06
2018-03-29T07:44:42.148Z,5.10
2018-03-29T07:45:42.101Z,4.86
2018-03-29T07:46:42.075Z,5.01
2018-03-29T07:47:41.998Z,5.04
2018-03-29T07:48:41.947Z,5.10
2018-03-29T07:49:41.898Z,5.04
2018-03-29T07:50:41.848Z,5.04
2018-03-29T07:51:41.821Z,5.06
2018-03-29T07:52:41.756Z,4.96
2018-03-29T07:53:41.700Z,5.04
2018-03-29T07:54:41.647Z,5.06
2018-03-29T07:55:41.599Z,4.99
2018-03-29T07:56:41.573Z,5.06
2018-03-29T07:57:41.507Z,5.10
2018-03-29T07:58:49.099Z,5.06
2018-03-29T07:59:41.399Z,5.03
2018-03-29T08:00:41.348Z,5.08
2018-03-29T08:01:41.321Z,5.11
2018-03-29T08:02:41.245Z,5.19
2018-03-29T08:03:41.198Z,5.13
2018-03-29T08:04:41.155Z,5.06
2018-03-29T08:05:41.098Z,5.14
2018-03-29T08:06:41.068Z,5.14
2018-03-29T08:07:40.995Z,5.17
2018-03-29T08:08:40.947Z,5.26
2018-03-29T08:09:40.894Z,5.25
2018-03-29T08:10:40.847Z,5.16
2018-03-29T08:11:40.815Z,5.19
2018-03-29T08:12:40.747Z,5.11
2018-03-29T08:13:40.698Z,5.26
2018-03-29T08:14:40.721Z,5.24
2018-03-29T08:15:40.594Z,5.17
2018-03-29T08:16:40.571Z,5.21
2018-03-29T08:17:40.495Z,5.21
2018-03-29T08:18:40.444Z,5.26
2018-03-29T08:19:40.392Z,5.24
2018-03-29T08:20:40.345Z,5.24
2018-03-29T08:21:40.318Z,5.28
2018-03-29T08:22:40.243Z,5.24
2018-03-29T08:23:40.195Z,5.29
2018-03-29T08:24:40.143Z,5.35
2018-03-29T08:25:40.094Z,5.44
2018-03-29T08:26:40.068Z,5.42
2018-03-29T08:27:39.996Z,5.49
2018-03-29T08:28:39.948Z,5.50
2018-03-29T08:29:39.895Z,5.64
2018-03-29T08:30:39.845Z,5.69
2018-03-29T08:31:39.796Z,5.68
2018-03-29T08:32:39.782Z,5.64
2018-03-29T08:33:39.699Z,5.80
2018-03-29T08:34:39.644Z,5.77
2018-03-29T08:35:39.600Z,5.82
2018-03-29T08:36:39.551Z,5.80
2018-03-29T08:37:39.520Z,5.67
2018-03-29T08:38:39.451Z,5.57
2018-03-29T08:39:39.400Z,5.61
2018-03-29T08:40:39.353Z,5.69
2018-03-29T08:41:39.307Z,5.72
2018-03-29T08:42:39.276Z,5.85
2018-03-29T08:43:39.201Z,5.86
2018-03-29T08:44:39.155Z,5.89
2018-03-29T08:45:39.102Z,5.85
2018-03-29T08:46:39.051Z,5.87
2018-03-29T08:47:39.029Z,5.97
2018-03-29T08:48:38.958Z,6.05
2018-03-29T08:49:38.906Z,6.13
2018-03-29T08:50:38.866Z,6.21
2018-03-29T08:51:38.807Z,6.18
2018-03-29T08:52:38.781Z,6.08
2018-03-29T08:53:38.706Z,6.13
2018-03-29T08:54:38.657Z,6.26
2018-03-29T08:55:38.608Z,6.29
2018-03-29T08:56:38.559Z,6.30
2018-03-29T08:57:38.533Z,6.32
2018-03-29T08:58:38.461Z,6.48
2018-03-29T08:59:38.412Z,6.47
2018-03-29T09:00:38.368Z,6.49
2018-03-29T09:01:38.341Z,6.48
2018-03-29T09:02:38.290Z,6.62
2018-03-29T09:03:38.220Z,6.53
2018-03-29T09:04:38.171Z,6.47
2018-03-29T09:05:38.122Z,6.48
2018-03-29T09:06:38.074Z,6.55
2018-03-29T09:07:38.048Z,6.49
2018-03-29T09:08:37.971Z,6.48
2018-03-29T09:09:37.929Z,6.59
2018-03-29T09:10:37.873Z,6.52
2018-03-29T09:11:37.834Z,6.49
2018-03-29T09:12:37.801Z,6.41
2018-03-29T09:13:37.734Z,6.42
2018-03-29T09:14:37.689Z,6.63
2018-03-29T09:15:37.631Z,6.63
2018-03-29T09:16:37.584Z,6.62
2018-03-29T09:17:37.568Z,6.65
2018-03-29T09:18:37.489Z,6.67
2018-03-29T09:19:37.515Z,6.63
2018-03-29T09:20:37.390Z,6.66
2018-03-29T09:21:37.341Z,6.74
2018-03-29T09:22:37.317Z,6.67
2018-03-29T09:23:37.246Z,6.60
2018-03-29T09:24:37.193Z,6.63
2018-03-29T09:25:37.151Z,6.53
2018-03-29T09:26:37.101Z,6.52
2018-03-29T09:27:37.075Z,6.52
2018-03-29T09:28:37.003Z,6.53
2018-03-29T09:29:36.955Z,6.45
2018-03-29T09:30:36.913Z,6.37
2018-03-29T09:31:36.857Z,6.30
2018-03-29T09:32:36.834Z,6.35
2018-03-29T09:33:36.763Z,6.29
2018-03-29T09:34:36.711Z,6.21
2018-03-29T09:35:36.673Z,6.21
2018-03-29T09:36:36.611Z,6.21
2018-03-29T09:37:36.590Z,6.30
2018-03-29T09:38:36.511Z,6.32
2018-03-29T09:39:36.469Z,6.34
2018-03-29T09:40:36.424Z,6.29
2018-03-29T09:41:36.391Z,6.30
2018-03-29T09:42:36.344Z,6.27
2018-03-29T09:43:36.275Z,6.29
2018-03-29T09:44:36.225Z,6.32
2018-03-29T09:45:36.174Z,6.29
2018-03-29T09:46:36.128Z,6.26
2018-03-29T09:47:36.103Z,6.32
2018-03-29T09:48:36.035Z,6.30
2018-03-29T09:49:35.996Z,6.37
2018-03-29T09:50:35.927Z,6.34
2018-03-29T09:51:35.881Z,6.38
2018-03-29T09:52:35.852Z,6.41
2018-03-29T09:53:35.778Z,6.32
2018-03-29T09:54:35.733Z,6.37
2018-03-29T09:55:35.687Z,6.52
2018-03-29T09:56:35.635Z,6.48
2018-03-29T09:57:35.607Z,6.45
2018-03-29T09:58:35.532Z,6.53
2018-03-29T09:59:35.487Z,6.55
2018-03-29T10:00:35.448Z,6.66
2018-03-29T10:01:35.408Z,6.75
2018-03-29T10:02:35.358Z,6.91
2018-03-29T10:03:35.300Z,7.07
2018-03-29T10:04:35.260Z,7.17
2018-03-29T10:05:35.189Z,7.25
2018-03-29T10:06:35.138Z,7.18
2018-03-29T10:07:35.112Z,7.29
2018-03-29T10:08:35.042Z,7.28
2018-03-29T10:09:34.992Z,7.29
2018-03-29T10:10:34.941Z,7.28
2018-03-29T10:11:34.922Z,7.26
2018-03-29T10:12:34.972Z,7.23
2018-03-29T10:13:34.802Z,7.31
2018-03-29T10:14:34.754Z,7.38
2018-03-29T10:15:34.702Z,7.23
2018-03-29T10:16:34.655Z,7.18
2018-03-29T10:17:34.630Z,7.13
2018-03-29T10:18:34.561Z,7.08
2018-03-29T10:19:34.511Z,7.03
2018-03-29T10:20:34.463Z,7.03
2018-03-29T10:21:34.419Z,6.96
2018-03-29T10:22:34.388Z,6.95
2018-03-29T10:23:34.322Z,6.95
2018-03-29T10:24:34.270Z,6.95
2018-03-29T10:25:34.221Z,6.95
2018-03-29T10:26:34.174Z,6.92
2018-03-29T10:27:34.147Z,7.00
2018-03-29T10:28:34.072Z,7.02
2018-03-29T10:29:34.029Z,7.03
2018-03-29T10:30:33.999Z,7.02
2018-03-29T10:31:33.929Z,7.10
2018-03-29T10:32:33.904Z,7.08
2018-03-29T10:33:33.834Z,7.03
2018-03-29T10:34:33.787Z,7.20
2018-03-29T10:35:33.740Z,7.20
2018-03-29T10:36:33.686Z,7.18
2018-03-29T10:37:33.673Z,7.16
2018-03-29T10:38:33.609Z,7.13
2018-03-29T10:39:33.556Z,7.14
2018-03-29T10:40:33.525Z,7.13
2018-03-29T10:41:33.451Z,7.20
2018-03-29T10:42:33.399Z,7.17
2018-03-29T10:43:33.377Z,7.16
2018-03-29T10:44:33.304Z,7.20
2018-03-29T10:45:33.254Z,7.25
2018-03-29T10:46:33.200Z,7.20
2018-03-29T10:47:33.216Z,7.26
2018-03-29T10:48:33.135Z,7.31
2018-03-29T10:49:33.076Z,7.34
2018-03-29T10:50:33.011Z,7.42
2018-03-29T10:51:32.967Z,7.36
2018-03-29T10:52:32.972Z,7.41
2018-03-29T10:53:32.892Z,7.39
2018-03-29T10:54:32.818Z,7.41
2018-03-29T10:55:32.774Z,7.39
2018-03-29T10:56:32.724Z,7.29
2018-03-29T10:57:32.674Z,7.35
2018-03-29T10:58:32.651Z,7.28
2018-03-29T10:59:32.580Z,7.25
2018-03-29T11:00:32.533Z,7.25
2018-03-29T11:01:32.484Z,7.29
2018-03-29T11:02:32.435Z,7.38
2018-03-29T11:03:32.412Z,7.26
2018-03-29T11:04:32.340Z,7.44
2018-03-29T11:05:32.289Z,7.59
2018-03-29T11:06:32.244Z,7.72
2018-03-29T11:07:32.191Z,7.69
2018-03-29T11:08:32.172Z,7.70
2018-03-29T11:09:32.096Z,7.86
2018-03-29T11:10:32.049Z,7.86
2018-03-29T11:11:32.006Z,7.94
2018-03-29T11:12:31.955Z,8.06
2018-03-29T11:13:31.928Z,8.16
2018-03-29T11:14:31.857Z,8.30
2018-03-29T11:15:31.807Z,8.33
2018-03-29T11:16:31.764Z,8.21
2018-03-29T11:17:31.720Z,8.23
2018-03-29T11:18:31.696Z,8.33
2018-03-29T11:19:31.621Z,8.31
2018-03-29T11:20:31.570Z,8.38
2018-03-29T11:21:31.522Z,8.30
2018-03-29T11:22:31.479Z,8.34
2018-03-29T11:23:31.457Z,8.41
2018-03-29T11:24:31.381Z,8.42
2018-03-29T11:25:31.337Z,8.48
2018-03-29T11:26:31.286Z,8.31
2018-03-29T11:27:31.243Z,8.31
2018-03-29T11:28:31.217Z,8.34
2018-03-29T11:29:31.143Z,8.27
2018-03-29T11:30:31.096Z,8.27
2018-03-29T11:31:31.082Z,8.33
2018-03-29T11:32:31.081Z,8.55
2018-03-29T11:33:30.991Z,8.63
2018-03-29T11:34:30.907Z,8.70
2018-03-29T11:35:30.859Z,8.77
2018-03-29T11:36:30.811Z,8.75
2018-03-29T11:37:30.853Z,8.80
2018-03-29T11:38:30.742Z,8.80
2018-03-29T11:39:30.670Z,8.77
2018-03-29T11:40:30.625Z,8.75
2018-03-29T11:41:30.578Z,8.72
2018-03-29T11:42:30.530Z,8.80
2018-03-29T11:43:30.510Z,8.95
2018-03-29T11:44:30.437Z,8.88
2018-03-29T11:45:30.390Z,8.88
2018-03-29T11:46:30.340Z,9.05
2018-03-29T11:47:30.302Z,9.00
2018-03-29T11:48:30.271Z,9.08
2018-03-29T11:49:30.200Z,9.05
2018-03-29T11:50:30.153Z,8.98
2018-03-29T11:51:30.107Z,9.11
2018-03-29T11:52:30.056Z,9.02
2018-03-29T11:53:30.038Z,8.96
2018-03-29T11:54:29.968Z,9.05
2018-03-29T11:55:29.930Z,9.03
2018-03-29T11:56:29.879Z,9.16
2018-03-29T11:57:29.823Z,9.15
2018-03-29T11:58:29.799Z,9.15
2018-03-29T11:59:29.730Z,9.16
2018-03-29T12:00:29.683Z,9.16
2018-03-29T12:01:29.645Z,9.03
2018-03-29T12:02:29.591Z,8.99
2018-03-29T12:03:29.563Z,8.98
2018-03-29T12:04:29.496Z,8.91
2018-03-29T12:05:29.449Z,8.96
2018-03-29T12:06:29.401Z,8.99
2018-03-29T12:07:29.360Z,8.99
2018-03-29T12:08:29.329Z,8.98
2018-03-29T12:09:29.260Z,8.78
2018-03-29T12:10:29.212Z,8.64
2018-03-29T12:11:29.166Z,8.64
2018-03-29T12:12:29.118Z,8.59
2018-03-29T12:13:29.097Z,8.66
2018-03-29T12:14:36.687Z,8.66
2018-03-29T12:15:28.979Z,8.66
2018-03-29T12:16:28.932Z,8.67
2018-03-29T12:17:28.888Z,8.73
2018-03-29T12:18:28.868Z,8.66
2018-03-29T12:19:28.790Z,8.59
2018-03-29T12:20:28.742Z,8.69
2018-03-29T12:21:28.694Z,8.82
2018-03-29T12:22:28.649Z,8.84
2018-03-29T12:23:28.628Z,8.98
2018-03-29T12:24:28.553Z,8.96
2018-03-29T12:25:28.509Z,8.96
2018-03-29T12:26:28.455Z,9.11
2018-03-29T12:27:28.411Z,9.16
2018-03-29T12:28:28.394Z,8.99
2018-03-29T12:29:28.319Z,8.98
2018-03-29T12:30:28.272Z,8.99
2018-03-29T12:31:28.227Z,8.84
2018-03-29T12:32:28.175Z,8.88
2018-03-29T12:33:28.155Z,8.91
2018-03-29T12:34:28.086Z,8.98
2018-03-29T12:35:28.048Z,9.06
2018-03-29T12:36:28.486Z,9.05
2018-03-29T12:37:27.945Z,9.08
2018-03-29T12:38:27.918Z,9.16
2018-03-29T12:39:27.848Z,9.03
2018-03-29T12:40:27.802Z,9.10
2018-03-29T12:41:28.138Z,8.96
2018-03-29T12:42:27.711Z,9.06
2018-03-29T12:43:27.691Z,9.06
2018-03-29T12:44:27.659Z,9.00
2018-03-29T12:45:27.712Z,9.08
2018-03-29T12:46:27.531Z,9.03
2018-03-29T12:47:27.482Z,9.00
2018-03-29T12:48:27.441Z,8.91
2018-03-29T12:49:27.404Z,8.99
2018-03-29T12:50:27.410Z,8.95
2018-03-29T12:51:27.289Z,8.95
2018-03-29T12:52:27.245Z,8.95
2018-03-29T12:53:27.342Z,8.90
2018-03-29T12:54:27.189Z,8.98
2018-03-29T12:55:27.226Z,8.93
2018-03-29T12:56:27.162Z,8.99
2018-03-29T12:57:27.071Z,9.00
2018-03-29T12:58:27.097Z,9.15
2018-03-29T12:59:26.938Z,9.33
2018-03-29T13:00:26.918Z,9.32
2018-03-29T13:01:26.823Z,9.44
2018-03-29T13:02:26.779Z,9.61
2018-03-29T13:03:26.726Z,9.64
2018-03-29T13:04:26.701Z,9.65
2018-03-29T13:05:26.638Z,9.58
2018-03-29T13:06:26.585Z,9.67
2018-03-29T13:07:27.879Z,9.58
2018-03-29T13:08:29.487Z,9.55
2018-03-29T13:09:27.246Z,9.46
2018-03-29T13:10:28.393Z,9.39
2018-03-29T13:11:26.357Z,9.52
2018-03-29T13:12:26.304Z,9.49
2018-03-29T13:13:26.261Z,9.49
2018-03-29T13:14:26.342Z,9.47
2018-03-29T13:15:26.182Z,9.57
2018-03-29T13:16:26.140Z,9.52
2018-03-29T13:17:28.542Z,9.54